Latest Weather Observations for Ocean Reef

IDW60801

Issued at 10:33 am WST Sunday 19 April 2015 (issued every 30 minutes, with the page automatically refreshed every 10 minutes)

About weather observations | Map of weather stations | Latest weather observations for WA | Other Formats
Station Details ID: 009214 Name: OCEAN REEF Lat: -31.76 Lon: 115.73 Height: 10.0 m
Data from the previous 72 hours. | See also: Recent months for locations in Western Australia
Date/Time
WST
Temp
°C
App
Temp
°C
Dew
Point
Rel
Hum
%
Delta-T
°C
Wind Press
QNH
hPa
Press
MSL
hPa
Rain
since 9 am
mm
Dir
 
Spd
km/h
Gust
km/h
Spd
kts
Gust
kts
19/10:30am - - - - - ENE 28 41 15 22 - - -
19/10:00am - - - - - NE 28 41 15 22 - - -
19/09:30am - - - - - ENE 28 46 15 25 - - -
19/09:23am - - - - - ENE 28 46 15 25 - - -
19/09:00am - - - - - ENE 28 39 15 21 - - -
19/08:30am - - - - - ENE 28 37 15 20 - - -
19/08:00am - - - - - ENE 24 35 13 19 - - -
19/07:30am - - - - - ENE 20 28 11 15 - - -
19/07:00am - - - - - E 20 28 11 15 - - -
19/06:30am - - - - - E 20 28 11 15 - - -
19/06:00am - - - - - E 24 32 13 17 - - -
19/05:30am - - - - - E 24 32 13 17 - - -
19/05:00am - - - - - E 19 28 10 15 - - -
19/04:30am - - - - - E 17 26 9 14 - - -
19/04:00am - - - - - E 20 30 11 16 - - -
19/03:30am - - - - - E 20 28 11 15 - - -
19/03:00am - - - - - E 24 33 13 18 - - -
19/02:30am - - - - - E 22 33 12 18 - - -
19/02:00am - - - - - E 20 28 11 15 - - -
19/01:30am - - - - - E 19 28 10 15 - - -
19/01:00am - - - - - E 17 24 9 13 - - -
19/12:30am - - - - - E 15 20 8 11 - - -
19/12:00am - - - - - E 17 22 9 12 - - -
 
Date/Time
WST
Temp
°C
App
Temp
°C
Dew
Point
Rel
Hum
%
Delta-T
°C
Wind Press
QNH
hPa
Press
MSL
hPa
Rain
since 9 am
mm
Dir
 
Spd
km/h
Gust
km/h
Spd
kts
Gust
kts
18/11:30pm - - - - - E 17 19 9 10 - - -
18/11:00pm - - - - - ESE 13 17 7 9 - - -
18/10:30pm - - - - - E 11 13 6 7 - - -
18/10:00pm - - - - - E 11 13 6 7 - - -
18/09:30pm - - - - - E 11 13 6 7 - - -
18/09:00pm - - - - - E 11 13 6 7 - - -
18/08:30pm - - - - - E 9 9 5 5 - - -
18/08:00pm - - - - - E 6 7 3 4 - - -
18/07:30pm - - - - - SSE 9 11 5 6 - - -
18/07:00pm - - - - - SSE 15 17 8 9 - - -
18/06:30pm - - - - - SSE 17 24 9 13 - - -
18/06:00pm - - - - - S 22 28 12 15 - - -
18/05:30pm - - - - - S 20 26 11 14 - - -
18/05:00pm - - - - - SE 17 22 9 12 - - -
18/04:30pm - - - - - ESE 17 24 9 13 - - -
18/04:00pm - - - - - ESE 17 28 9 15 - - -
18/03:30pm - - - - - ESE 19 26 10 14 - - -
18/03:00pm - - - - - E 15 22 8 12 - - -
18/02:30pm - - - - - E 17 30 9 16 - - -
18/02:00pm - - - - - SE 19 33 10 18 - - -
18/01:30pm - - - - - E 15 20 8 11 - - -
18/01:00pm - - - - - NE 15 22 8 12 - - -
18/12:30pm - - - - - ENE 20 33 11 18 - - -
18/12:00pm - - - - - ENE 20 30 11 16 - - -
18/11:30am - - - - - E 24 33 13 18 - - -
18/11:00am - - - - - ENE 20 32 11 17 - - -
18/10:30am - - - - - ENE 26 35 14 19 - - -
18/10:00am - - - - - ENE 26 35 14 19 - - -
18/09:30am - - - - - ENE 30 41 16 22 - - -
18/09:00am - - - - - ENE 24 35 13 19 - - -
18/08:30am - - - - - E 24 33 13 18 - - -
18/08:00am - - - - - E 26 37 14 20 - - -
18/07:30am - - - - - E 24 33 13 18 - - -
18/07:00am - - - - - E 24 33 13 18 - - -
18/06:30am - - - - - E 26 33 14 18 - - -
18/06:00am - - - - - E 19 26 10 14 - - -
18/05:30am - - - - - ESE 20 30 11 16 - - -
18/05:00am - - - - - ESE 19 26 10 14 - - -
18/04:30am - - - - - SE 13 19 7 10 - - -
18/04:00am - - - - - SSE 9 11 5 6 - - -
18/03:30am - - - - - SE 7 9 4 5 - - -
18/03:00am - - - - - SE 11 13 6 7 - - -
18/02:30am - - - - - SE 11 13 6 7 - - -
18/02:00am - - - - - SE 13 13 7 7 - - -
18/01:30am - - - - - SE 11 13 6 7 - - -
18/01:00am - - - - - SSE 11 13 6 7 - - -
18/12:30am - - - - - SE 13 13 7 7 - - -
18/12:00am - - - - - SE 15 19 8 10 - - -
 
Date/Time
WST
Temp
°C
App
Temp
°C
Dew
Point
Rel
Hum
%
Delta-T
°C
Wind Press
QNH
hPa
Press
MSL
hPa
Rain
since 9 am
mm
Dir
 
Spd
km/h
Gust
km/h
Spd
kts
Gust
kts
17/11:30pm - - - - - SE 13 17 7 9 - - -
17/11:00pm - - - - - SSE 11 15 6 8 - - -
17/10:30pm - - - - - SE 13 17 7 9 - - -
17/10:00pm - - - - - SE 13 19 7 10 - - -
17/09:30pm - - - - - SE 13 17 7 9 - - -
17/09:00pm - - - - - SE 19 28 10 15 - - -
17/08:30pm - - - - - SSE 24 37 13 20 - - -
17/08:00pm - - - - - S 33 41 18 22 - - -
17/07:30pm - - - - - S 32 39 17 21 - - -
17/07:00pm - - - - - S 30 37 16 20 - - -
17/06:30pm - - - - - S 30 35 16 19 - - -
17/06:00pm - - - - - S 30 35 16 19 - - -
17/05:30pm - - - - - S 32 35 17 19 - - -
17/05:00pm - - - - - S 30 35 16 19 - - -
17/04:30pm - - - - - SSW 30 35 16 19 - - -
17/04:00pm - - - - - SSW 32 35 17 19 - - -
17/03:30pm - - - - - SSW 30 33 16 18 - - -
17/03:00pm - - - - - SSW 32 35 17 19 - - -
17/02:30pm - - - - - SSW 30 33 16 18 - - -
17/02:00pm - - - - - SSW 28 32 15 17 - - -
17/01:30pm - - - - - SSW 26 30 14 16 - - -
17/01:00pm - - - - - SSW 22 26 12 14 - - -
17/12:30pm - - - - - SSW 17 20 9 11 - - -
17/12:00pm - - - - - SSW 17 20 9 11 - - -
17/11:30am - - - - - SSW 15 19 8 10 - - -
17/11:00am - - - - - SSW 13 15 7 8 - - -
17/10:30am - - - - - WSW 11 15 6 8 - - -
17/10:00am - - - - - WSW 7 9 4 5 - - -
17/09:30am - - - - - ENE 7 11 4 6 - - -
17/09:00am - - - - - SSE 9 15 5 8 - - -
17/08:30am - - - - - ENE 24 30 13 16 - - -
17/08:00am - - - - - ENE 28 33 15 18 - - -
17/07:30am - - - - - ENE 26 32 14 17 - - -
17/07:00am - - - - - ENE 24 30 13 16 - - -
17/06:30am - - - - - ENE 26 30 14 16 - - -
17/06:00am - - - - - ENE 22 30 12 16 - - -
17/05:30am - - - - - ENE 19 26 10 14 - - -
17/05:00am - - - - - ENE 20 26 11 14 - - -
17/04:30am - - - - - E 19 28 10 15 - - -
17/04:00am - - - - - E 19 24 10 13 - - -
17/03:30am - - - - - E 19 26 10 14 - - -
17/03:00am - - - - - E 17 22 9 12 - - -
17/02:30am - - - - - E 17 22 9 12 - - -
17/02:00am - - - - - ESE 13 17 7 9 - - -
17/01:30am - - - - - ESE 11 13 6 7 - - -
17/01:00am - - - - - ESE 11 11 6 6 - - -
17/12:30am - - - - - SE 11 13 6 7 - - -
17/12:00am - - - - - SE 13 15 7 8 - - -
 
Date/Time
WST
Temp
°C
App
Temp
°C
Dew
Point
Rel
Hum
%
Delta-T
°C
Wind Press
QNH
hPa
Press
MSL
hPa
Rain
since 9 am
mm
Dir
 
Spd
km/h
Gust
km/h
Spd
kts
Gust
kts
16/11:30pm - - - - - SE 9 13 5 7 - - -
16/11:00pm - - - - - SE 13 17 7 9 - - -
16/10:30pm - - - - - SE 13 15 7 8 - - -
16/10:00pm - - - - - SSE 9 9 5 5 - - -
16/09:30pm - - - - - SSE 9 9 5 5 - - -
16/09:00pm - - - - - SE 7 9 4 5 - - -
16/08:30pm - - - - - E 7 11 4 6 - - -
16/08:00pm - - - - - ESE 9 13 5 7 - - -
16/07:30pm - - - - - ESE 11 13 6 7 - - -
16/07:00pm - - - - - ESE 15 20 8 11 - - -
16/06:30pm - - - - - ESE 15 20 8 11 - - -
16/06:00pm - - - - - ESE 13 19 7 10 - - -
16/05:30pm - - - - - ESE 17 26 9 14 - - -
16/05:00pm - - - - - ESE 17 28 9 15 - - -
16/04:30pm - - - - - SE 19 28 10 15 - - -
16/04:00pm - - - - - ESE 22 32 12 17 - - -
16/03:30pm - - - - - SE 20 32 11 17 - - -
16/03:00pm - - - - - SE 19 28 10 15 - - -
16/02:30pm - - - - - SE 15 26 8 14 - - -
16/02:00pm - - - - - E 20 28 11 15 - - -
16/01:30pm - - - - - SE 22 33 12 18 - - -
16/01:00pm - - - - - ESE 20 39 11 21 - - -
16/12:30pm - - - - - ESE 20 35 11 19 - - -
16/12:00pm - - - - - ESE 20 35 11 19 - - -
16/11:30am - - - - - E 19 30 10 16 - - -
16/11:00am - - - - - ESE 15 32 8 17 - - -

Other Formats:

Comma delimited format used in spreadsheet applications
http://www.bom.gov.au/fwo/IDW60801/IDW60801.94607.axf

JavaScript Object Notation format (JSON) in row-major order
http://www.bom.gov.au/fwo/IDW60801/IDW60801.94607.json